createdAt,value
2022-11-18T00:00:06.095Z,5.17
2022-11-18T00:02:54.258Z,4.49
2022-11-18T00:05:22.060Z,4.05
2022-11-18T00:07:49.829Z,3.71
2022-11-18T00:10:17.637Z,4.15
2022-11-18T00:13:04.036Z,6.15
2022-11-18T00:15:31.987Z,5.89
2022-11-18T00:17:59.839Z,4.94
2022-11-18T00:20:27.884Z,4.25
2022-11-18T00:22:55.855Z,3.79
2022-11-18T00:25:23.655Z,3.95
2022-11-18T00:27:51.556Z,6.00
2022-11-18T00:30:19.384Z,7.08
2022-11-18T00:32:47.445Z,6.01
2022-11-18T00:35:15.319Z,5.00
2022-11-18T00:37:43.161Z,4.36
2022-11-18T00:40:11.733Z,3.89
2022-11-18T00:42:51.526Z,3.53
2022-11-18T00:45:21.015Z,3.99
2022-11-18T00:47:49.362Z,6.13
2022-11-18T00:50:17.362Z,6.07
2022-11-18T00:52:45.207Z,5.06
2022-11-18T00:55:13.051Z,4.28
2022-11-18T00:57:40.947Z,3.78
2022-11-18T01:00:10.005Z,3.71
2022-11-18T01:02:37.924Z,5.51
2022-11-18T01:05:06.024Z,5.82
2022-11-18T01:07:33.906Z,4.86
2022-11-18T01:10:01.841Z,4.12
2022-11-18T01:12:53.965Z,3.63
2022-11-18T01:15:22.190Z,3.95
2022-11-18T01:17:50.046Z,6.11
2022-11-18T01:20:17.949Z,7.02
2022-11-18T01:22:45.781Z,5.84
2022-11-18T01:25:13.715Z,4.80
2022-11-18T01:27:41.692Z,4.18
2022-11-18T01:30:09.995Z,3.76
2022-11-18T01:32:37.942Z,3.58
2022-11-18T01:35:06.525Z,5.20
2022-11-18T01:37:34.313Z,6.82
2022-11-18T01:40:03.587Z,5.99
2022-11-18T01:42:31.455Z,4.99
2022-11-18T01:45:09.866Z,4.32
2022-11-18T01:47:46.480Z,3.82
2022-11-18T01:50:16.649Z,3.45
2022-11-18T01:52:51.292Z,3.14
2022-11-18T01:55:25.265Z,3.66
2022-11-18T01:57:58.880Z,6.47
2022-11-18T02:00:26.759Z,6.81
2022-11-18T02:02:54.593Z,5.56
2022-11-18T02:05:22.610Z,4.65
2022-11-18T02:07:51.497Z,4.02
2022-11-18T02:10:23.731Z,3.57
2022-11-18T02:12:52.991Z,3.20
2022-11-18T02:15:39.274Z,2.91
2022-11-18T02:18:20.244Z,3.55
2022-11-18T02:20:51.390Z,6.68
2022-11-18T02:23:49.310Z,6.57
2022-11-18T02:27:15.744Z,5.11
2022-11-18T02:29:57.480Z,4.02
2022-11-18T02:32:52.639Z,3.50
2022-11-18T02:35:30.388Z,3.05
2022-11-18T02:38:31.410Z,2.74
2022-11-18T02:41:04.801Z,4.17
2022-11-18T02:43:44.449Z,6.21
2022-11-18T02:46:17.870Z,5.21
2022-11-18T02:48:49.446Z,4.17
2022-11-18T02:51:23.756Z,3.50
2022-11-18T02:53:52.398Z,3.00
2022-11-18T02:56:21.270Z,2.72
2022-11-18T02:58:49.240Z,2.50
2022-11-18T03:01:21.205Z,3.83
2022-11-18T03:03:50.681Z,6.44
2022-11-18T03:06:36.797Z,5.72
2022-11-18T03:09:31.562Z,4.46
2022-11-18T03:12:24.029Z,3.64
2022-11-18T03:14:57.900Z,3.08
2022-11-18T03:17:43.681Z,2.72
2022-11-18T03:20:27.378Z,2.40
2022-11-18T03:23:04.871Z,2.38
2022-11-18T03:25:40.262Z,4.69
2022-11-18T03:28:22.838Z,5.75
2022-11-18T03:31:20.975Z,4.49
2022-11-18T03:33:54.920Z,3.49
2022-11-18T03:36:27.611Z,2.93
2022-11-18T03:39:00.540Z,2.51
2022-11-18T03:41:31.459Z,2.67
2022-11-18T03:44:26.638Z,4.68
2022-11-18T03:47:06.993Z,5.26
2022-11-18T03:49:45.368Z,4.10
2022-11-18T03:52:22.909Z,3.29
2022-11-18T03:54:53.530Z,2.77
2022-11-18T03:57:32.601Z,2.67
2022-11-18T04:00:09.583Z,4.87
2022-11-18T04:02:38.473Z,6.22
2022-11-18T04:05:10.246Z,5.16
2022-11-18T04:07:56.979Z,4.11
2022-11-18T04:11:39.292Z,3.35
2022-11-18T04:14:07.935Z,2.92
2022-11-18T04:16:45.640Z,4.52
2022-11-18T04:19:13.496Z,6.12
2022-11-18T04:21:41.480Z,5.23
2022-11-18T04:24:09.476Z,4.23
2022-11-18T04:26:37.348Z,3.53
2022-11-18T04:29:05.278Z,3.03
2022-11-18T04:31:33.516Z,2.76
2022-11-18T04:34:01.361Z,4.07
2022-11-18T04:36:29.322Z,5.40
2022-11-18T04:38:57.164Z,4.72
2022-11-18T04:41:45.071Z,3.83
2022-11-18T04:44:13.495Z,3.17
2022-11-18T04:46:42.391Z,3.12
2022-11-18T04:49:15.264Z,4.89
2022-11-18T04:51:44.251Z,6.20
2022-11-18T04:54:13.088Z,5.22
2022-11-18T04:56:47.469Z,4.21
2022-11-18T04:59:22.511Z,3.51
2022-11-18T05:01:50.962Z,3.03
2022-11-18T05:04:22.797Z,2.66
2022-11-18T05:06:51.375Z,2.98
2022-11-18T05:09:20.545Z,5.02
2022-11-18T05:12:08.133Z,5.93
2022-11-18T05:14:36.612Z,4.72
2022-11-18T05:17:07.780Z,3.83
2022-11-18T05:19:39.395Z,3.23
2022-11-18T05:22:07.893Z,2.82
2022-11-18T05:24:35.820Z,2.49
2022-11-18T05:27:04.048Z,2.69
2022-11-18T05:29:33.578Z,4.65
2022-11-18T05:32:01.435Z,5.92
2022-11-18T05:34:29.666Z,4.96
2022-11-18T05:36:57.683Z,4.01
2022-11-18T05:39:25.821Z,3.36
2022-11-18T05:42:12.131Z,2.92
2022-11-18T05:44:40.045Z,2.55
2022-11-18T05:47:13.708Z,3.26
2022-11-18T05:49:41.593Z,4.97
2022-11-18T05:52:09.624Z,4.57
2022-11-18T05:54:48.684Z,3.73
2022-11-18T05:57:16.792Z,3.15
2022-11-18T05:59:44.738Z,2.77
2022-11-18T06:02:33.705Z,2.48
2022-11-18T06:05:10.296Z,2.21
2022-11-18T06:07:53.479Z,3.00
2022-11-18T06:10:29.811Z,4.56
2022-11-18T06:13:03.009Z,3.96
2022-11-18T06:15:35.851Z,3.28
2022-11-18T06:18:06.869Z,2.80
2022-11-18T06:20:36.207Z,2.48
2022-11-18T06:23:04.471Z,2.23
2022-11-18T06:25:32.873Z,2.16
2022-11-18T06:28:02.374Z,3.64
2022-11-18T06:30:33.083Z,5.19
2022-11-18T06:33:00.962Z,4.54
2022-11-18T06:35:29.000Z,3.67
2022-11-18T06:37:56.861Z,3.11
2022-11-18T06:40:24.712Z,2.74
2022-11-18T06:43:11.167Z,2.44
2022-11-18T06:45:38.974Z,2.18
2022-11-18T06:48:09.225Z,2.77
2022-11-18T06:50:38.589Z,4.80
2022-11-18T06:53:09.543Z,4.98
2022-11-18T06:55:39.921Z,4.03
2022-11-18T06:58:07.726Z,3.34
2022-11-18T07:00:37.760Z,2.87
2022-11-18T07:03:05.596Z,2.55
2022-11-18T07:05:33.412Z,2.79
2022-11-18T07:08:01.395Z,4.71
2022-11-18T07:10:29.396Z,5.56
2022-11-18T07:12:57.263Z,4.59
2022-11-18T07:15:25.139Z,3.79
2022-11-18T07:17:53.245Z,3.26
2022-11-18T07:20:21.187Z,2.88
2022-11-18T07:22:55.001Z,3.22
2022-11-18T07:25:22.904Z,5.26
2022-11-18T07:27:50.773Z,6.26
2022-11-18T07:30:18.784Z,5.27
2022-11-18T07:32:46.710Z,4.34
2022-11-18T07:35:14.725Z,3.72
2022-11-18T07:37:42.538Z,3.28
2022-11-18T07:40:10.826Z,4.11
2022-11-18T07:42:44.582Z,5.90
2022-11-18T07:45:12.773Z,5.57
2022-11-18T07:47:40.869Z,4.55
2022-11-18T07:50:08.916Z,3.78
2022-11-18T07:52:36.862Z,3.28
2022-11-18T07:55:05.451Z,2.89
2022-11-18T07:57:33.388Z,2.59
2022-11-18T08:00:01.272Z,2.33
2022-11-18T08:02:29.474Z,2.63
2022-11-18T08:04:57.593Z,4.46
2022-11-18T08:07:25.721Z,4.71
2022-11-18T08:09:53.813Z,3.79
2022-11-18T08:12:21.681Z,3.13
2022-11-18T08:14:49.647Z,2.68
2022-11-18T08:17:17.706Z,2.43
2022-11-18T08:19:45.600Z,3.77
2022-11-18T08:22:13.458Z,5.32
2022-11-18T08:24:41.255Z,4.51
2022-11-18T08:27:09.106Z,3.65
2022-11-18T08:29:37.136Z,3.05
2022-11-18T08:32:06.832Z,2.65
2022-11-18T08:34:34.712Z,2.31
2022-11-18T08:37:02.666Z,2.19
2022-11-18T08:39:30.705Z,3.77
2022-11-18T08:41:58.864Z,4.95
2022-11-18T08:44:27.201Z,4.08
2022-11-18T08:46:55.364Z,3.29
2022-11-18T08:49:25.103Z,2.76
2022-11-18T08:51:56.586Z,2.39
2022-11-18T08:54:24.710Z,2.09
2022-11-18T08:56:52.553Z,1.84
2022-11-18T08:59:20.660Z,1.62
2022-11-18T09:01:48.741Z,1.43
2022-11-18T09:04:16.738Z,1.45
2022-11-18T09:06:44.863Z,3.63
2022-11-18T09:09:12.858Z,4.60
2022-11-18T09:11:40.890Z,3.58
2022-11-18T09:16:59.774Z,2.12
2022-11-18T09:22:15.708Z,1.49
2022-11-18T09:24:45.018Z,1.31
2022-11-18T09:27:16.989Z,1.18
2022-11-18T09:29:45.881Z,1.05
2022-11-18T09:32:14.262Z,1.31
2022-11-18T09:34:42.122Z,3.86
2022-11-18T09:37:10.201Z,4.05
2022-11-18T09:39:38.025Z,3.09
2022-11-18T09:42:27.164Z,2.45
2022-11-18T09:45:26.050Z,1.99
2022-11-18T09:47:58.825Z,1.67
2022-11-18T09:50:48.515Z,1.46
2022-11-18T09:53:26.304Z,1.28
2022-11-18T09:55:55.071Z,1.12
2022-11-18T09:58:30.239Z,2.39
2022-11-18T10:00:58.092Z,4.58
2022-11-18T10:03:32.417Z,3.73
2022-11-18T10:06:10.144Z,2.91
2022-11-18T10:09:02.277Z,2.39
2022-11-18T10:11:51.652Z,2.02
2022-11-18T10:14:43.026Z,1.77
2022-11-18T10:17:36.111Z,1.58
2022-11-18T10:20:28.375Z,1.38
2022-11-18T10:23:43.902Z,1.23
2022-11-18T10:26:13.020Z,1.11
2022-11-18T10:28:41.128Z,1.03
2022-11-18T10:31:12.244Z,0.96
2022-11-18T10:33:40.591Z,0.89
2022-11-18T10:36:28.756Z,0.85
2022-11-18T10:39:08.516Z,0.79
2022-11-18T10:42:05.628Z,0.77
2022-11-18T10:44:41.651Z,0.72
2022-11-18T10:47:24.356Z,0.75
2022-11-18T10:49:59.596Z,0.81
2022-11-18T10:52:30.373Z,0.85
2022-11-18T10:55:18.934Z,0.87
2022-11-18T10:57:48.247Z,0.88
2022-11-18T11:00:47.153Z,0.90
2022-11-18T11:03:38.065Z,0.91
2022-11-18T11:06:27.125Z,0.92
2022-11-18T11:09:04.296Z,2.56
2022-11-18T11:11:40.460Z,4.24
2022-11-18T11:14:20.901Z,3.46
2022-11-18T11:17:13.299Z,2.86
2022-11-18T11:20:03.141Z,2.50
2022-11-18T11:22:31.109Z,2.28
2022-11-18T11:24:58.938Z,2.15
2022-11-18T11:28:15.792Z,2.05
2022-11-18T11:31:21.255Z,1.93
2022-11-18T11:34:05.007Z,1.84
2022-11-18T11:36:48.669Z,1.78
2022-11-18T11:39:41.279Z,1.73
2022-11-18T11:42:30.895Z,1.67
2022-11-18T11:45:16.941Z,1.57
2022-11-18T11:48:11.865Z,1.41
2022-11-18T11:51:05.067Z,1.42
2022-11-18T11:54:11.256Z,1.39
2022-11-18T11:56:59.457Z,1.37
2022-11-18T11:59:53.024Z,1.34
2022-11-18T12:02:49.574Z,1.33
2022-11-18T12:05:25.410Z,1.31
2022-11-18T12:07:56.589Z,1.30
2022-11-18T12:10:49.422Z,1.28
2022-11-18T12:14:06.736Z,3.33
2022-11-18T12:16:57.181Z,5.76
2022-11-18T12:19:25.333Z,4.56
2022-11-18T12:22:00.429Z,3.79
2022-11-18T12:24:42.696Z,3.29
2022-11-18T12:27:27.714Z,2.97
2022-11-18T12:30:01.742Z,2.74
2022-11-18T12:32:42.999Z,2.56
2022-11-18T12:35:15.574Z,2.41
2022-11-18T12:37:52.870Z,2.29
2022-11-18T12:40:36.430Z,2.17
2022-11-18T12:43:30.498Z,2.07
2022-11-18T12:45:59.375Z,2.51
2022-11-18T12:48:40.128Z,5.31
2022-11-18T12:51:25.609Z,7.06
2022-11-18T12:53:54.284Z,5.86
2022-11-18T12:56:27.904Z,4.90
2022-11-18T12:59:05.354Z,4.26
2022-11-18T13:01:37.061Z,3.85
2022-11-18T13:04:20.040Z,3.57
2022-11-18T13:06:48.345Z,3.32
2022-11-18T13:09:25.098Z,3.13
2022-11-18T13:11:59.843Z,2.95
2022-11-18T13:14:58.430Z,2.81
2022-11-18T13:17:54.743Z,2.66
2022-11-18T13:20:36.210Z,2.52
2022-11-18T13:23:40.634Z,2.41
2022-11-18T13:26:19.744Z,2.31
2022-11-18T13:29:37.339Z,2.23
2022-11-18T13:32:27.755Z,2.15
2022-11-18T13:35:11.445Z,2.08
2022-11-18T13:37:59.337Z,2.02
2022-11-18T13:40:39.581Z,1.96
2022-11-18T13:43:11.623Z,1.92
2022-11-18T13:45:39.897Z,1.88
2022-11-18T13:48:14.319Z,2.14
2022-11-18T13:50:51.356Z,4.85
2022-11-18T13:53:40.176Z,6.77
2022-11-18T13:56:17.111Z,5.65
2022-11-18T14:01:41.396Z,4.06
2022-11-18T14:04:36.209Z,3.72
2022-11-18T14:07:36.873Z,3.43
2022-11-18T14:10:10.056Z,3.21
2022-11-18T14:12:38.122Z,3.06
2022-11-18T14:15:32.588Z,2.92
2022-11-18T14:18:01.823Z,2.79
2022-11-18T14:20:31.445Z,2.68
2022-11-18T14:23:12.727Z,2.57
2022-11-18T14:25:43.983Z,2.46
2022-11-18T14:28:17.998Z,2.38
2022-11-18T14:31:00.876Z,2.29
2022-11-18T14:33:31.458Z,2.20
2022-11-18T14:36:12.626Z,2.12
2022-11-18T14:39:25.362Z,2.04
2022-11-18T14:41:48.825Z,1.95
2022-11-18T14:44:22.189Z,1.87
2022-11-18T14:46:55.159Z,1.80
2022-11-18T14:49:26.491Z,2.32
2022-11-18T14:51:55.313Z,5.16
2022-11-18T14:54:27.687Z,6.31
2022-11-18T14:57:00.945Z,5.19
2022-11-18T14:59:28.762Z,4.28
2022-11-18T15:01:58.823Z,3.73
2022-11-18T15:04:27.056Z,3.36
2022-11-18T15:06:55.338Z,3.09
2022-11-18T15:09:23.321Z,2.86
2022-11-18T15:11:51.400Z,2.67
2022-11-18T15:14:19.437Z,2.49
2022-11-18T15:16:47.521Z,2.32
2022-11-18T15:19:16.531Z,2.16
2022-11-18T15:21:45.786Z,2.02
2022-11-18T15:24:14.205Z,1.87
2022-11-18T15:26:45.713Z,1.74
2022-11-18T15:29:25.153Z,1.61
2022-11-18T15:31:53.194Z,1.49
2022-11-18T15:34:21.721Z,1.38
2022-11-18T15:36:50.025Z,1.79
2022-11-18T15:39:18.496Z,4.58
2022-11-18T15:41:46.561Z,6.14
2022-11-18T15:44:16.930Z,5.12
2022-11-18T15:46:48.167Z,4.10
2022-11-18T15:49:18.097Z,3.43
2022-11-18T15:51:46.305Z,2.98
2022-11-18T15:54:14.591Z,2.65
2022-11-18T15:56:42.920Z,2.39
2022-11-18T15:59:13.422Z,2.16
2022-11-18T16:01:44.773Z,1.95
2022-11-18T16:04:15.731Z,1.75
2022-11-18T16:06:44.052Z,1.57
2022-11-18T16:09:13.828Z,1.42
2022-11-18T16:12:01.138Z,1.28
2022-11-18T16:14:29.193Z,1.81
2022-11-18T16:16:57.646Z,4.05
2022-11-18T16:19:26.966Z,5.48
2022-11-18T16:21:57.200Z,4.62
2022-11-18T16:24:28.789Z,3.69
2022-11-18T16:26:57.608Z,3.09
2022-11-18T16:29:25.897Z,2.71
2022-11-18T16:31:56.558Z,2.43
2022-11-18T16:34:27.492Z,2.20
2022-11-18T16:37:01.399Z,2.01
2022-11-18T16:39:29.741Z,1.85
2022-11-18T16:42:07.996Z,1.70
2022-11-18T16:44:37.991Z,1.57
2022-11-18T16:47:14.300Z,1.46
2022-11-18T16:49:44.279Z,2.00
2022-11-18T16:52:14.769Z,4.64
2022-11-18T16:54:45.762Z,5.90
2022-11-18T16:57:14.969Z,4.89
2022-11-18T16:59:43.251Z,3.97
2022-11-18T17:02:13.864Z,3.39
2022-11-18T17:04:42.923Z,2.99
2022-11-18T17:07:11.583Z,2.69
2022-11-18T17:09:39.728Z,2.46
2022-11-18T17:12:11.230Z,2.25
2022-11-18T17:14:40.232Z,2.05
2022-11-18T17:17:08.277Z,1.88
2022-11-18T17:19:36.723Z,1.72
2022-11-18T17:22:05.091Z,1.57
2022-11-18T17:24:33.196Z,1.43
2022-11-18T17:27:01.341Z,1.82
2022-11-18T17:29:29.498Z,4.52
2022-11-18T17:31:57.565Z,5.92
2022-11-18T17:34:25.755Z,4.87
2022-11-18T17:36:54.041Z,3.90
2022-11-18T17:39:22.269Z,3.26
2022-11-18T17:42:09.341Z,2.83
2022-11-18T17:44:37.462Z,2.49
2022-11-18T17:47:05.774Z,2.25
2022-11-18T17:49:33.811Z,2.03
2022-11-18T17:52:01.942Z,1.84
2022-11-18T17:54:29.998Z,1.67
2022-11-18T17:56:58.099Z,1.53
2022-11-18T17:59:26.510Z,1.40
2022-11-18T18:01:59.259Z,1.79
2022-11-18T18:04:28.199Z,4.99
2022-11-18T18:06:56.393Z,7.10
2022-11-18T18:09:29.934Z,5.94
2022-11-18T18:12:00.498Z,4.69
2022-11-18T18:14:28.700Z,3.92
2022-11-18T18:16:56.880Z,3.42
2022-11-18T18:19:25.237Z,3.06
2022-11-18T18:21:53.667Z,2.78
2022-11-18T18:24:22.650Z,2.54
2022-11-18T18:26:50.985Z,2.34
2022-11-18T18:29:19.276Z,2.15
2022-11-18T18:31:47.361Z,1.99
2022-11-18T18:34:15.937Z,1.84
2022-11-18T18:36:44.324Z,1.70
2022-11-18T18:39:12.926Z,1.57
2022-11-18T18:41:41.277Z,2.18
2022-11-18T18:44:13.717Z,5.24
2022-11-18T18:46:44.810Z,6.88
2022-11-18T18:49:15.493Z,5.72
2022-11-18T18:51:46.436Z,4.63
2022-11-18T18:54:18.054Z,3.91
2022-11-18T18:56:46.426Z,3.45
2022-11-18T18:59:14.576Z,3.12
2022-11-18T19:01:42.927Z,2.85
2022-11-18T19:04:14.333Z,2.63
2022-11-18T19:06:56.907Z,2.43
2022-11-18T19:09:26.832Z,2.23
2022-11-18T19:12:13.491Z,2.08
2022-11-18T19:14:41.848Z,1.93
2022-11-18T19:17:12.171Z,1.80
2022-11-18T19:20:00.714Z,2.39
2022-11-18T19:22:31.582Z,5.77
2022-11-18T19:25:00.561Z,7.25
2022-11-18T19:27:29.629Z,6.00
2022-11-18T19:29:57.687Z,4.89
2022-11-18T19:32:25.647Z,4.19
2022-11-18T19:34:53.618Z,3.72
2022-11-18T19:37:21.531Z,3.36
2022-11-18T19:39:49.446Z,3.08
2022-11-18T19:42:17.399Z,2.84
2022-11-18T19:44:45.480Z,2.63
2022-11-18T19:47:13.387Z,2.44
2022-11-18T19:49:41.456Z,2.27
2022-11-18T19:52:09.480Z,2.11
2022-11-18T19:54:37.425Z,1.97
2022-11-18T19:57:05.256Z,1.83
2022-11-18T19:59:33.464Z,2.31
2022-11-18T20:02:01.452Z,5.34
2022-11-18T20:04:29.769Z,7.45
2022-11-18T20:06:58.393Z,6.33
2022-11-18T20:09:26.444Z,5.12
2022-11-18T20:11:55.597Z,4.33
2022-11-18T20:14:23.559Z,3.82
2022-11-18T20:16:54.526Z,3.44
2022-11-18T20:19:22.852Z,3.14
2022-11-18T20:21:52.646Z,2.89
2022-11-18T20:24:21.170Z,2.67
2022-11-18T20:26:49.170Z,2.48
2022-11-18T20:29:17.538Z,2.30
2022-11-18T20:31:45.751Z,2.14
2022-11-18T20:34:14.657Z,1.99
2022-11-18T20:36:43.214Z,1.86
2022-11-18T20:39:17.421Z,1.73
2022-11-18T20:42:13.672Z,2.47
2022-11-18T20:44:41.842Z,5.75
2022-11-18T20:47:09.977Z,6.89
2022-11-18T20:49:38.363Z,5.71
2022-11-18T20:52:06.460Z,4.68
2022-11-18T20:54:34.316Z,4.00
2022-11-18T20:57:02.370Z,3.55
2022-11-18T20:59:30.299Z,3.21
2022-11-18T21:01:58.604Z,2.94
2022-11-18T21:04:26.896Z,2.71
2022-11-18T21:06:59.049Z,2.51
2022-11-18T21:09:31.921Z,2.32
2022-11-18T21:12:00.483Z,3.28
2022-11-18T21:14:28.651Z,6.03
2022-11-18T21:17:00.890Z,6.86
2022-11-18T21:19:29.699Z,5.64
2022-11-18T21:21:57.689Z,4.66
2022-11-18T21:24:34.215Z,4.04
2022-11-18T21:27:03.715Z,3.57
2022-11-18T21:29:35.961Z,3.24
2022-11-18T21:32:04.257Z,2.95
2022-11-18T21:34:32.677Z,2.72
2022-11-18T21:37:05.383Z,3.21
2022-11-18T21:39:33.705Z,6.21
2022-11-18T21:42:02.370Z,6.98
2022-11-18T21:44:30.451Z,5.76
2022-11-18T21:46:58.262Z,4.78
2022-11-18T21:49:26.280Z,4.12
2022-11-18T21:51:54.245Z,3.67
2022-11-18T21:54:22.170Z,3.32
2022-11-18T21:56:50.423Z,3.03
2022-11-18T21:59:18.776Z,3.44
2022-11-18T22:01:47.005Z,6.21
2022-11-18T22:04:35.030Z,7.40
2022-11-18T22:07:03.098Z,6.05
2022-11-18T22:09:36.028Z,5.02
2022-11-18T22:12:06.949Z,4.32
2022-11-18T22:14:36.150Z,3.84
2022-11-18T22:17:04.822Z,3.47
2022-11-18T22:19:32.854Z,3.15
2022-11-18T22:22:01.091Z,2.89
2022-11-18T22:24:29.095Z,3.34
2022-11-18T22:26:57.571Z,6.20
2022-11-18T22:29:26.196Z,6.93
2022-11-18T22:31:54.175Z,5.67
2022-11-18T22:34:22.293Z,4.68
2022-11-18T22:36:50.241Z,4.02
2022-11-18T22:39:18.788Z,3.54
2022-11-18T22:42:05.578Z,3.16
2022-11-18T22:44:33.589Z,2.82
2022-11-18T22:47:04.114Z,2.54
2022-11-18T22:49:32.352Z,2.34
2022-11-18T22:52:00.585Z,4.13
2022-11-18T22:54:38.884Z,6.43
2022-11-18T22:57:07.731Z,5.57
2022-11-18T22:59:35.622Z,4.45
2022-11-18T23:02:03.816Z,3.68
2022-11-18T23:04:32.054Z,3.16
2022-11-18T23:07:13.708Z,2.76
2022-11-18T23:09:41.687Z,2.41
2022-11-18T23:12:28.265Z,2.12
2022-11-18T23:14:56.304Z,2.76
2022-11-18T23:17:24.355Z,5.65
2022-11-18T23:19:52.398Z,6.60
2022-11-18T23:22:20.380Z,5.26
2022-11-18T23:24:49.815Z,4.17
2022-11-18T23:27:17.743Z,3.44
2022-11-18T23:29:45.585Z,2.93
2022-11-18T23:32:13.577Z,2.52
2022-11-18T23:34:41.525Z,2.18
2022-11-18T23:37:09.761Z,1.88
2022-11-18T23:39:37.801Z,1.98
2022-11-18T23:42:06.011Z,4.51
2022-11-18T23:44:46.271Z,6.16
2022-11-18T23:47:14.499Z,4.92
2022-11-18T23:49:42.594Z,3.81
2022-11-18T23:52:10.854Z,3.07
2022-11-18T23:54:38.806Z,2.55
2022-11-18T23:57:06.992Z,2.14
2022-11-18T23:59:34.963Z,1.80
